Time;durP1;ratioP1;P1;durP2;ratioP2;P2;SDS_P1;SDS_P2;PMS_P1;PMS_P2;Temp;Humidity;BMP_temperature;BMP_pressure;BME280_temperature;BME280_humidity;BME280_pressure;Samples;Min_cycle;Max_cycle;Signal;HPM_P1;HPM_P2
2022/08/16 00:00:32;;;;;;;;;;;20.40;52.70;;;;;;5125034;27;20339;-47
2022/08/16 00:02:58;;;;;;;;;;;20.20;51.70;;;;;;5148833;27;19927;-48
2022/08/16 00:05:25;;;;;;;;;;;19.80;51.60;;;;;;5143310;27;19923;-46
2022/08/16 00:07:51;;;;;;;;;;;19.80;51.10;;;;;;5143079;27;19927;-48
2022/08/16 00:10:17;;;;;;;;;;;20.00;54.30;;;;;;5148551;27;19972;-50
2022/08/16 00:12:43;;;;;;;;;;;20.80;57.10;;;;;;5138918;27;20324;-49
2022/08/16 00:15:13;;;;;;;;;;;21.70;55.70;;;;;;5147542;27;19933;-46
2022/08/16 00:17:39;;;;;;;;;;;21.10;54.50;;;;;;5143040;27;19927;-46
2022/08/16 00:20:07;;;;;;;;;;;20.70;53.00;;;;;;5143072;27;19931;-47
2022/08/16 00:22:33;;;;;;;;;;;20.20;52.40;;;;;;5148498;27;19933;-46
2022/08/16 00:24:59;;;;;;;;;;;19.90;51.60;;;;;;5142953;27;19930;-46
2022/08/16 00:27:25;;;;;;;;;;;19.90;51.00;;;;;;5142800;27;19973;-46
2022/08/16 00:29:51;;;;;;;;;;;20.00;54.00;;;;;;5146523;27;19931;-51
2022/08/16 00:32:17;;;;;;;;;;;20.70;57.40;;;;;;5139736;27;20013;-46
2022/08/16 00:34:43;;;;;;;;;;;21.60;56.00;;;;;;5147047;27;19971;-56
2022/08/16 00:37:08;;;;;;;;;;;21.20;54.50;;;;;;5144478;27;19950;-45
2022/08/16 00:39:34;;;;;;;;;;;20.60;53.30;;;;;;5142529;27;19979;-45
2022/08/16 00:42:00;;;;;;;;;;;20.30;52.40;;;;;;5147966;27;19923;-49
2022/08/16 00:44:26;;;;;;;;;;;19.90;51.90;;;;;;5142557;27;19924;-47
2022/08/16 00:46:53;;;;;;;;;;;19.80;51.20;;;;;;5142658;27;19923;-50
2022/08/16 00:49:18;;;;;;;;;;;19.90;53.50;;;;;;5144446;27;19923;-49
2022/08/16 00:51:44;;;;;;;;;;;20.70;57.20;;;;;;5141382;27;19923;-48
2022/08/16 00:54:12;;;;;;;;;;;21.50;56.30;;;;;;5125471;27;20140;-52
2022/08/16 00:56:38;;;;;;;;;;;21.20;54.50;;;;;;5147364;27;19922;-46
2022/08/16 00:59:05;;;;;;;;;;;20.60;53.30;;;;;;5142450;27;19923;-47
2022/08/16 01:01:31;;;;;;;;;;;20.10;53.00;;;;;;5147890;27;19934;-48
2022/08/16 01:03:57;;;;;;;;;;;19.80;51.90;;;;;;5142410;27;20022;-48
2022/08/16 01:06:23;;;;;;;;;;;19.70;51.40;;;;;;5141202;27;20335;-49
2022/08/16 01:08:49;;;;;;;;;;;19.80;52.20;;;;;;5143529;27;19976;-46
2022/08/16 01:11:15;;;;;;;;;;;20.50;57.00;;;;;;5142198;27;20062;-46
2022/08/16 01:13:41;;;;;;;;;;;21.30;56.90;;;;;;5142512;27;20046;-44
2022/08/16 01:16:08;;;;;;;;;;;21.50;55.00;;;;;;5147799;27;19936;-48
2022/08/16 01:18:36;;;;;;;;;;;20.60;54.00;;;;;;5120248;27;19927;-47
2022/08/16 01:21:20;;;;;;;;;;;20.40;52.50;;;;;;5148851;27;19929;-45
2022/08/16 01:23:49;;;;;;;;;;;20.00;52.00;;;;;;5152088;27;19923;-47
2022/08/16 01:26:15;;;;;;;;;;;19.80;51.50;;;;;;5119183;27;20353;-52
2022/08/16 01:28:41;;;;;;;;;;;19.80;52.30;;;;;;5151240;27;19927;-47
2022/08/16 01:31:07;;;;;;;;;;;20.50;56.70;;;;;;5146429;27;19974;-48
2022/08/16 01:33:32;;;;;;;;;;;21.20;57.30;;;;;;5146345;27;19923;-46
2022/08/16 01:36:03;;;;;;;;;;;21.50;55.10;;;;;;5151605;27;20398;-49
2022/08/16 01:38:34;;;;;;;;;;;20.70;53.90;;;;;;5127697;27;20323;-46
2022/08/16 01:41:04;;;;;;;;;;;20.30;52.90;;;;;;5146270;27;19952;-45
2022/08/16 01:43:30;;;;;;;;;;;20.00;52.40;;;;;;5149351;27;19923;-49
2022/08/16 01:45:56;;;;;;;;;;;19.80;51.50;;;;;;5143080;27;19979;-47
2022/08/16 01:48:27;;;;;;;;;;;19.70;51.30;;;;;;5128737;27;19923;-55
2022/08/16 01:50:52;;;;;;;;;;;20.20;56.40;;;;;;5151493;27;19927;-46
2022/08/16 01:53:18;;;;;;;;;;;21.00;57.90;;;;;;5145727;27;20390;-45
2022/08/16 01:55:44;;;;;;;;;;;21.80;56.00;;;;;;5151445;27;20283;-46
2022/08/16 01:58:11;;;;;;;;;;;20.80;54.60;;;;;;5145650;27;19923;-46
2022/08/16 02:00:37;;;;;;;;;;;20.50;53.20;;;;;;5119475;27;20002;-47
2022/08/16 02:03:03;;;;;;;;;;;20.20;51.90;;;;;;5146342;27;19960;-46
2022/08/16 02:05:28;;;;;;;;;;;19.90;52.00;;;;;;5145084;27;19923;-45
2022/08/16 02:07:54;;;;;;;;;;;19.80;51.50;;;;;;5145741;27;20585;-45
2022/08/16 02:10:20;;;;;;;;;;;19.90;54.10;;;;;;5151400;27;20309;-45
2022/08/16 02:12:46;;;;;;;;;;;20.60;57.90;;;;;;5145608;27;19933;-46
2022/08/16 02:15:12;;;;;;;;;;;21.50;57.40;;;;;;5151212;27;20382;-48
2022/08/16 02:17:38;;;;;;;;;;;21.30;55.30;;;;;;5145824;27;19933;-49
2022/08/16 02:20:04;;;;;;;;;;;20.50;54.30;;;;;;5144063;27;20294;-48
2022/08/16 02:22:30;;;;;;;;;;;20.30;52.90;;;;;;5147434;27;19930;-45
2022/08/16 02:24:56;;;;;;;;;;;19.80;53.00;;;;;;5145387;27;19923;-47
2022/08/16 02:27:22;;;;;;;;;;;19.90;51.40;;;;;;5145518;27;19933;-46
2022/08/16 02:29:47;;;;;;;;;;;19.60;51.80;;;;;;5150795;27;19938;-46
2022/08/16 02:32:14;;;;;;;;;;;20.00;55.50;;;;;;5145083;27;19923;-50
2022/08/16 02:34:39;;;;;;;;;;;20.80;58.10;;;;;;5150787;27;19923;-50
2022/08/16 02:37:05;;;;;;;;;;;21.70;57.00;;;;;;5145561;27;19923;-47
2022/08/16 02:39:31;;;;;;;;;;;21.30;55.10;;;;;;5141610;27;19952;-46
2022/08/16 02:41:57;;;;;;;;;;;20.60;53.80;;;;;;5148973;27;19923;-46
2022/08/16 02:44:22;;;;;;;;;;;20.30;52.60;;;;;;5144768;27;20443;-47
2022/08/16 02:46:48;;;;;;;;;;;19.90;52.20;;;;;;5144869;27;19931;-48
2022/08/16 02:49:14;;;;;;;;;;;19.80;51.60;;;;;;5150490;27;19930;-46
2022/08/16 02:51:40;;;;;;;;;;;20.00;53.80;;;;;;5144823;27;20366;-47
2022/08/16 02:54:06;;;;;;;;;;;20.70;58.00;;;;;;5148272;27;20335;-51
2022/08/16 02:56:32;;;;;;;;;;;21.40;57.80;;;;;;5146913;27;20498;-51
2022/08/16 02:58:58;;;;;;;;;;;21.40;55.70;;;;;;5140246;27;19934;-46
2022/08/16 03:01:25;;;;;;;;;;;20.70;54.00;;;;;;5150181;27;19991;-49
2022/08/16 03:03:51;;;;;;;;;;;20.10;53.50;;;;;;5144705;27;20352;-47
2022/08/16 03:06:19;;;;;;;;;;;20.00;52.20;;;;;;5144528;27;19927;-46
2022/08/16 03:08:46;;;;;;;;;;;19.80;52.00;;;;;;5150225;27;19948;-45
2022/08/16 03:11:11;;;;;;;;;;;19.80;51.40;;;;;;5144628;27;19927;-46
2022/08/16 03:13:37;;;;;;;;;;;20.00;54.90;;;;;;5144469;27;20327;-48
2022/08/16 03:16:03;;;;;;;;;;;20.70;58.60;;;;;;5146614;27;19924;-46
2022/08/16 03:18:29;;;;;;;;;;;21.50;57.90;;;;;;5118113;27;19942;-46
2022/08/16 03:20:55;;;;;;;;;;;21.30;55.90;;;;;;5149810;27;20021;-46
2022/08/16 03:23:21;;;;;;;;;;;20.80;54.20;;;;;;5144106;27;19967;-48
2022/08/16 03:25:47;;;;;;;;;;;20.20;53.30;;;;;;5144222;27;20390;-47
2022/08/16 03:28:13;;;;;;;;;;;20.00;52.40;;;;;;5149725;27;19953;-46
2022/08/16 03:30:39;;;;;;;;;;;19.70;52.10;;;;;;5144086;27;19946;-45
2022/08/16 03:33:05;;;;;;;;;;;19.80;51.50;;;;;;5143893;27;19927;-47
2022/08/16 03:35:31;;;;;;;;;;;20.00;55.40;;;;;;5144544;27;20374;-47
2022/08/16 03:37:58;;;;;;;;;;;20.80;58.60;;;;;;5143491;27;20017;-48
2022/08/16 03:40:24;;;;;;;;;;;21.60;57.90;;;;;;5149428;27;19931;-47
2022/08/16 03:42:49;;;;;;;;;;;21.00;55.70;;;;;;5143794;27;20381;-48
2022/08/16 03:45:16;;;;;;;;;;;20.50;54.40;;;;;;5143182;27;19979;-47
2022/08/16 03:47:42;;;;;;;;;;;20.20;53.20;;;;;;5149288;27;19934;-45
2022/08/16 03:50:08;;;;;;;;;;;20.10;52.30;;;;;;5125185;27;20392;-49
2022/08/16 03:52:34;;;;;;;;;;;19.80;52.20;;;;;;5140643;27;19971;-47
2022/08/16 03:55:00;;;;;;;;;;;19.80;51.40;;;;;;5147031;27;20300;-49
2022/08/16 03:57:26;;;;;;;;;;;20.20;56.90;;;;;;5143487;27;20306;-46
2022/08/16 03:59:52;;;;;;;;;;;21.00;58.60;;;;;;5147577;27;19941;-53
2022/08/16 04:02:18;;;;;;;;;;;21.70;57.70;;;;;;5145347;27;20017;-46
2022/08/16 04:04:44;;;;;;;;;;;21.10;55.40;;;;;;5124863;27;20351;-48
2022/08/16 04:07:09;;;;;;;;;;;20.50;54.30;;;;;;5148977;27;20043;-46
2022/08/16 04:09:35;;;;;;;;;;;20.30;52.80;;;;;;5143492;27;19930;-47
2022/08/16 04:12:02;;;;;;;;;;;20.20;52.20;;;;;;5138426;27;19945;-45
2022/08/16 04:14:28;;;;;;;;;;;20.00;51.40;;;;;;5148485;27;19923;-45
2022/08/16 04:16:55;;;;;;;;;;;19.80;51.10;;;;;;5143192;27;19923;-46
2022/08/16 04:19:22;;;;;;;;;;;19.90;54.50;;;;;;5144249;27;20358;-53
2022/08/16 04:21:48;;;;;;;;;;;20.70;58.30;;;;;;5148366;27;19927;-45
2022/08/16 04:24:14;;;;;;;;;;;21.40;58.40;;;;;;5142823;27;20013;-46
2022/08/16 04:26:40;;;;;;;;;;;21.40;56.40;;;;;;5148470;27;20406;-47
2022/08/16 04:29:06;;;;;;;;;;;20.60;54.50;;;;;;5139917;27;19923;-47
2022/08/16 04:31:31;;;;;;;;;;;20.40;53.30;;;;;;5140615;27;19927;-45
2022/08/16 04:33:58;;;;;;;;;;;20.00;52.50;;;;;;5148436;27;19927;-49
2022/08/16 04:36:24;;;;;;;;;;;19.80;52.00;;;;;;5141651;27;20289;-46
2022/08/16 04:38:50;;;;;;;;;;;20.00;53.60;;;;;;5142663;27;19923;-46
2022/08/16 04:41:16;;;;;;;;;;;20.60;58.60;;;;;;5148246;27;19975;-47
2022/08/16 04:43:42;;;;;;;;;;;21.30;58.80;;;;;;5142779;27;19971;-45
2022/08/16 04:46:08;;;;;;;;;;;21.40;56.50;;;;;;5148361;27;19933;-47
2022/08/16 04:48:34;;;;;;;;;;;20.70;55.40;;;;;;5137717;27;20393;-48
2022/08/16 04:50:59;;;;;;;;;;;20.30;53.70;;;;;;5142059;27;20298;-47
2022/08/16 04:53:27;;;;;;;;;;;20.10;52.90;;;;;;5147950;27;19961;-46
2022/08/16 04:55:53;;;;;;;;;;;19.90;52.20;;;;;;5141502;27;19923;-46
2022/08/16 04:58:19;;;;;;;;;;;19.80;51.70;;;;;;5142577;27;20014;-46
2022/08/16 05:00:45;;;;;;;;;;;20.30;57.70;;;;;;5147896;27;19927;-49
2022/08/16 05:03:11;;;;;;;;;;;21.10;59.10;;;;;;5142260;27;19930;-46
2022/08/16 05:05:37;;;;;;;;;;;21.50;57.00;;;;;;5145273;27;19931;-50
2022/08/16 05:08:03;;;;;;;;;;;20.60;55.30;;;;;;5139689;27;20013;-45
2022/08/16 05:10:29;;;;;;;;;;;20.60;53.60;;;;;;5142126;27;20017;-47
2022/08/16 05:12:58;;;;;;;;;;;20.20;52.90;;;;;;5129517;27;20017;-46
2022/08/16 05:15:24;;;;;;;;;;;20.00;52.00;;;;;;5142363;27;19930;-46
2022/08/16 05:17:50;;;;;;;;;;;20.10;51.50;;;;;;5142200;27;19923;-46
2022/08/16 05:20:16;;;;;;;;;;;19.90;52.30;;;;;;5147758;27;20446;-47
2022/08/16 05:22:42;;;;;;;;;;;20.50;57.90;;;;;;5142237;27;20036;-47
2022/08/16 05:25:08;;;;;;;;;;;21.20;58.90;;;;;;5139085;27;19983;-53
2022/08/16 05:27:34;;;;;;;;;;;21.50;56.70;;;;;;5145971;27;20866;-47
2022/08/16 05:29:59;;;;;;;;;;;20.80;55.20;;;;;;5142262;27;20457;-47
2022/08/16 05:32:25;;;;;;;;;;;20.30;53.70;;;;;;5129176;27;19933;-50
2022/08/16 05:34:51;;;;;;;;;;;20.00;53.00;;;;;;5142158;27;19924;-48
2022/08/16 05:37:17;;;;;;;;;;;20.00;52.20;;;;;;5142115;27;19993;-47
2022/08/16 05:39:43;;;;;;;;;;;19.90;51.60;;;;;;5147812;27;19923;-46
2022/08/16 05:42:09;;;;;;;;;;;20.00;51.90;;;;;;5140489;27;19927;-51
2022/08/16 05:44:35;;;;;;;;;;;20.50;57.90;;;;;;5138152;27;19948;-49
2022/08/16 05:47:00;;;;;;;;;;;21.20;58.90;;;;;;5147506;27;19930;-46
2022/08/16 05:49:27;;;;;;;;;;;21.70;57.00;;;;;;5142037;27;19930;-46
2022/08/16 05:51:55;;;;;;;;;;;20.80;55.10;;;;;;5147354;27;19934;-46
2022/08/16 05:54:21;;;;;;;;;;;20.50;53.90;;;;;;5141697;27;19947;-47
2022/08/16 05:56:47;;;;;;;;;;;20.20;53.20;;;;;;5141815;27;19934;-47
2022/08/16 05:59:13;;;;;;;;;;;20.10;52.00;;;;;;5147317;27;19941;-45
2022/08/16 06:01:39;;;;;;;;;;;20.00;51.70;;;;;;5137941;27;19933;-47
2022/08/16 06:04:06;;;;;;;;;;;19.80;51.40;;;;;;5140190;27;20202;-48
2022/08/16 06:06:31;;;;;;;;;;;20.00;53.70;;;;;;5147685;27;19922;-46
2022/08/16 06:08:57;;;;;;;;;;;20.70;58.50;;;;;;5145757;27;20323;-46
2022/08/16 06:11:23;;;;;;;;;;;21.30;58.70;;;;;;5151051;27;19931;-45
2022/08/16 06:13:49;;;;;;;;;;;21.30;56.50;;;;;;5145678;27;19962;-46
2022/08/16 06:16:15;;;;;;;;;;;20.80;54.90;;;;;;5145409;27;20386;-45
2022/08/16 06:18:43;;;;;;;;;;;20.60;53.60;;;;;;5150341;27;19934;-51
2022/08/16 06:21:10;;;;;;;;;;;20.30;52.90;;;;;;5141156;27;20404;-45
2022/08/16 06:23:35;;;;;;;;;;;20.10;52.40;;;;;;5145205;27;20079;-46
2022/08/16 06:26:02;;;;;;;;;;;20.10;51.70;;;;;;5150897;27;20292;-46
2022/08/16 06:28:28;;;;;;;;;;;19.80;51.30;;;;;;5145239;27;19927;-46
2022/08/16 06:30:54;;;;;;;;;;;19.80;53.80;;;;;;5147912;27;19927;-54
2022/08/16 06:33:19;;;;;;;;;;;20.60;58.30;;;;;;5148353;27;19923;-47
2022/08/16 06:35:46;;;;;;;;;;;21.30;59.10;;;;;;5145135;27;20370;-48
2022/08/16 06:38:11;;;;;;;;;;;21.70;57.20;;;;;;5147170;27;19927;-48
2022/08/16 06:40:37;;;;;;;;;;;20.80;55.20;;;;;;5117070;27;20518;-45
2022/08/16 06:43:03;;;;;;;;;;;20.40;54.20;;;;;;5145104;27;19923;-48
2022/08/16 06:45:29;;;;;;;;;;;20.30;52.80;;;;;;5150652;27;19930;-47
2022/08/16 06:47:55;;;;;;;;;;;20.10;52.40;;;;;;5145055;27;20620;-46
2022/08/16 06:50:21;;;;;;;;;;;20.00;52.00;;;;;;5145281;27;19923;-54
2022/08/16 06:52:47;;;;;;;;;;;19.80;51.70;;;;;;5150377;27;20000;-48
2022/08/16 06:55:13;;;;;;;;;;;19.80;52.00;;;;;;5144475;27;19931;-48
2022/08/16 06:57:39;;;;;;;;;;;19.80;51.50;;;;;;5144930;27;19927;-50
2022/08/16 07:00:12;;;;;;;;;;;19.90;51.10;;;;;;5144528;27;19927;-47
2022/08/16 07:02:39;;;;;;;;;;;20.00;50.70;;;;;;5144668;27;19927;-50
2022/08/16 07:05:05;;;;;;;;;;;19.90;50.60;;;;;;5149941;27;19955;-47
2022/08/16 07:07:32;;;;;;;;;;;19.80;50.90;;;;;;5144373;27;19923;-50
2022/08/16 07:09:57;;;;;;;;;;;20.30;55.30;;;;;;5144475;27;20604;-51
2022/08/16 07:12:23;;;;;;;;;;;21.00;58.20;;;;;;5149921;27;19976;-48
2022/08/16 07:14:49;;;;;;;;;;;21.70;58.50;;;;;;5140975;27;19956;-47
2022/08/16 07:17:17;;;;;;;;;;;21.70;56.20;;;;;;5147158;27;20522;-54
2022/08/16 07:19:42;;;;;;;;;;;20.80;55.00;;;;;;5144589;27;20003;-45
2022/08/16 07:22:08;;;;;;;;;;;20.70;54.40;;;;;;5144055;27;19927;-46
2022/08/16 07:24:34;;;;;;;;;;;20.20;53.30;;;;;;5149687;27;19923;-46
2022/08/16 07:27:00;;;;;;;;;;;20.20;52.20;;;;;;5144300;27;20011;-47
2022/08/16 07:29:25;;;;;;;;;;;20.00;52.30;;;;;;5144062;27;19930;-45
2022/08/16 07:31:51;;;;;;;;;;;20.10;51.30;;;;;;5149460;27;19929;-48
2022/08/16 07:34:17;;;;;;;;;;;20.00;51.00;;;;;;5138462;27;19927;-46
2022/08/16 07:36:44;;;;;;;;;;;20.30;56.90;;;;;;5145595;27;19947;-56
2022/08/16 07:39:10;;;;;;;;;;;21.00;59.00;;;;;;5147992;27;20445;-45
2022/08/16 07:41:36;;;;;;;;;;;21.80;58.60;;;;;;5143883;27;20010;-45
2022/08/16 07:44:02;;;;;;;;;;;21.20;55.90;;;;;;5149223;27;19931;-46
2022/08/16 07:46:28;;;;;;;;;;;20.70;54.60;;;;;;5143659;27;19975;-45
2022/08/16 07:48:54;;;;;;;;;;;20.40;53.40;;;;;;5143820;27;19931;-45
2022/08/16 07:51:20;;;;;;;;;;;20.20;52.50;;;;;;5145859;27;20390;-46
2022/08/16 07:53:50;;;;;;;;;;;20.10;52.10;;;;;;5141273;27;20318;-44
2022/08/16 07:56:17;;;;;;;;;;;20.00;51.60;;;;;;5143337;27;19923;-44
2022/08/16 07:58:43;;;;;;;;;;;19.90;51.20;;;;;;5130510;27;19931;-46
2022/08/16 08:01:08;;;;;;;;;;;20.10;55.60;;;;;;5143500;27;20014;-49
2022/08/16 08:03:35;;;;;;;;;;;20.80;59.10;;;;;;5149053;27;19930;-47
2022/08/16 08:06:02;;;;;;;;;;;21.60;58.60;;;;;;5143126;27;20539;-47
2022/08/16 08:08:28;;;;;;;;;;;21.30;56.30;;;;;;5143128;27;19941;-49
2022/08/16 08:10:54;;;;;;;;;;;20.60;54.90;;;;;;5143366;27;19923;-45
2022/08/16 08:13:20;;;;;;;;;;;20.30;54.10;;;;;;5124363;27;19983;-46
2022/08/16 08:15:46;;;;;;;;;;;20.20;52.80;;;;;;5143041;27;19971;-47
2022/08/16 08:18:12;;;;;;;;;;;20.00;52.30;;;;;;5148594;27;20021;-49
2022/08/16 08:20:42;;;;;;;;;;;20.00;51.90;;;;;;5142843;27;20013;-46
2022/08/16 08:23:07;;;;;;;;;;;19.90;51.70;;;;;;5146310;27;19923;-56
2022/08/16 08:25:33;;;;;;;;;;;20.00;52.70;;;;;;5145130;27;19923;-48
2022/08/16 08:28:00;;;;;;;;;;;20.50;58.60;;;;;;5139865;27;19923;-47
2022/08/16 08:30:25;;;;;;;;;;;21.30;59.30;;;;;;5145690;27;19934;-46
2022/08/16 08:32:52;;;;;;;;;;;21.60;57.30;;;;;;5142803;27;20382;-45
2022/08/16 08:35:18;;;;;;;;;;;20.90;55.60;;;;;;5142984;27;20378;-45
2022/08/16 08:37:44;;;;;;;;;;;20.60;54.10;;;;;;5147992;27;19972;-48
2022/08/16 08:40:10;;;;;;;;;;;20.10;53.70;;;;;;5142580;27;20289;-46
2022/08/16 08:42:36;;;;;;;;;;;20.30;52.60;;;;;;5142995;27;20003;-52
2022/08/16 08:45:03;;;;;;;;;;;20.10;52.00;;;;;;5148127;27;19927;-45
2022/08/16 08:47:29;;;;;;;;;;;19.90;51.90;;;;;;5118918;27;19927;-45
2022/08/16 08:49:55;;;;;;;;;;;19.90;54.10;;;;;;5147699;27;20033;-46
2022/08/16 08:52:21;;;;;;;;;;;20.60;58.80;;;;;;5142537;27;19923;-50
2022/08/16 08:54:47;;;;;;;;;;;21.40;59.30;;;;;;5142543;27;20431;-48
2022/08/16 08:57:13;;;;;;;;;;;21.60;57.00;;;;;;5147855;27;19930;-47
2022/08/16 08:59:39;;;;;;;;;;;20.80;55.50;;;;;;5142544;27;19931;-45
2022/08/16 09:02:07;;;;;;;;;;;20.30;54.50;;;;;;5142465;27;19927;-45
2022/08/16 09:04:33;;;;;;;;;;;20.30;53.50;;;;;;5144959;27;19929;-55
2022/08/16 09:06:59;;;;;;;;;;;20.20;52.50;;;;;;5139540;27;19923;-46
2022/08/16 09:09:24;;;;;;;;;;;20.10;52.00;;;;;;5147789;27;20386;-49
2022/08/16 09:11:51;;;;;;;;;;;19.90;52.10;;;;;;5142353;27;19927;-50
2022/08/16 09:14:17;;;;;;;;;;;19.80;53.00;;;;;;5115537;27;19941;-47
2022/08/16 09:16:42;;;;;;;;;;;20.60;57.80;;;;;;5147472;27;20081;-46
2022/08/16 09:19:08;;;;;;;;;;;21.30;59.20;;;;;;5141919;27;19979;-48
2022/08/16 09:21:35;;;;;;;;;;;21.70;57.30;;;;;;5123736;27;19953;-46
2022/08/16 09:24:01;;;;;;;;;;;21.00;55.60;;;;;;5142768;27;20294;-47
2022/08/16 09:26:27;;;;;;;;;;;20.60;54.20;;;;;;5141267;27;20357;-47
2022/08/16 09:28:52;;;;;;;;;;;20.50;52.90;;;;;;5146669;27;20383;-56
2022/08/16 09:31:18;;;;;;;;;;;20.10;52.90;;;;;;5143315;27;19926;-48
2022/08/16 09:33:44;;;;;;;;;;;20.10;51.90;;;;;;5142150;27;19923;-46
2022/08/16 09:36:10;;;;;;;;;;;20.00;51.50;;;;;;5147474;27;20025;-48
2022/08/16 09:38:37;;;;;;;;;;;20.00;51.30;;;;;;5142120;27;19923;-48
2022/08/16 09:41:04;;;;;;;;;;;20.30;56.20;;;;;;5140627;27;19927;-49
2022/08/16 09:43:30;;;;;;;;;;;21.00;58.70;;;;;;5147515;27;19923;-48
2022/08/16 09:45:56;;;;;;;;;;;21.80;58.40;;;;;;5146176;27;20039;-47
2022/08/16 09:48:22;;;;;;;;;;;21.00;56.10;;;;;;5129000;27;19930;-52
2022/08/16 09:50:47;;;;;;;;;;;20.70;54.50;;;;;;5150766;27;19941;-45
2022/08/16 09:53:14;;;;;;;;;;;20.50;53.60;;;;;;5146067;27;19923;-46
2022/08/16 09:55:40;;;;;;;;;;;20.30;52.70;;;;;;5151412;27;19923;-47
2022/08/16 09:58:06;;;;;;;;;;;20.00;52.40;;;;;;5145649;27;20008;-48
2022/08/16 10:00:32;;;;;;;;;;;20.20;51.90;;;;;;5141981;27;20389;-48
2022/08/16 10:02:57;;;;;;;;;;;19.90;51.60;;;;;;5149604;27;19927;-46
2022/08/16 10:05:23;;;;;;;;;;;20.00;53.70;;;;;;5145571;27;20393;-46
2022/08/16 10:07:52;;;;;;;;;;;20.80;58.10;;;;;;5145567;27;20284;-47
2022/08/16 10:10:19;;;;;;;;;;;21.40;58.90;;;;;;5121821;27;20212;-48
2022/08/16 10:15:29;;;;;;;;;;;20.80;55.10;;;;;;5146135;27;19924;-53
2022/08/16 10:17:55;;;;;;;;;;;20.30;53.80;;;;;;5148400;27;19972;-48
2022/08/16 10:20:23;;;;;;;;;;;20.20;53.40;;;;;;5142017;27;19930;-45
2022/08/16 10:22:49;;;;;;;;;;;20.20;52.50;;;;;;5150741;27;19975;-50
2022/08/16 10:25:14;;;;;;;;;;;20.20;51.90;;;;;;5145338;27;19930;-51
2022/08/16 10:27:40;;;;;;;;;;;19.90;51.80;;;;;;5145303;27;19934;-47
2022/08/16 10:30:06;;;;;;;;;;;19.90;51.70;;;;;;5150933;27;19923;-46
2022/08/16 10:32:32;;;;;;;;;;;20.20;56.60;;;;;;5145375;27;19981;-46
2022/08/16 10:34:58;;;;;;;;;;;21.00;58.50;;;;;;5126622;27;20157;-47
2022/08/16 10:37:24;;;;;;;;;;;21.80;58.20;;;;;;5146022;27;19923;-52
2022/08/16 10:39:50;;;;;;;;;;;21.30;55.90;;;;;;5143902;27;19927;-47
2022/08/16 10:42:16;;;;;;;;;;;20.80;54.40;;;;;;5150492;27;20355;-44
2022/08/16 10:44:42;;;;;;;;;;;20.50;53.80;;;;;;5144922;27;20404;-46
2022/08/16 10:47:08;;;;;;;;;;;20.40;53.00;;;;;;5144659;27;19923;-46
2022/08/16 10:49:35;;;;;;;;;;;20.30;52.30;;;;;;5150160;27;20034;-46
2022/08/16 10:52:01;;;;;;;;;;;20.20;51.80;;;;;;5118749;27;20304;-46
2022/08/16 10:54:27;;;;;;;;;;;20.10;51.70;;;;;;5143904;27;20198;-53
2022/08/16 10:56:54;;;;;;;;;;;19.80;51.80;;;;;;5145682;27;20264;-49
2022/08/16 10:59:20;;;;;;;;;;;20.30;56.70;;;;;;5144600;27;19994;-45
2022/08/16 11:01:46;;;;;;;;;;;21.00;58.80;;;;;;5149197;27;19923;-53
2022/08/16 11:04:13;;;;;;;;;;;21.80;58.30;;;;;;5145560;27;19956;-46
2022/08/16 11:06:39;;;;;;;;;;;21.00;55.90;;;;;;5144413;27;20576;-46
2022/08/16 11:09:05;;;;;;;;;;;20.80;54.30;;;;;;5150022;27;19973;-46
2022/08/16 11:11:30;;;;;;;;;;;20.50;52.90;;;;;;5144329;27;20286;-46
2022/08/16 11:13:56;;;;;;;;;;;20.30;53.20;;;;;;5140463;27;19966;-47
2022/08/16 11:16:22;;;;;;;;;;;20.30;52.20;;;;;;5147822;27;19931;-45
2022/08/16 11:18:48;;;;;;;;;;;20.10;51.80;;;;;;5144049;27;20418;-45
2022/08/16 11:21:14;;;;;;;;;;;19.80;51.90;;;;;;5146685;27;19930;-53
2022/08/16 11:23:39;;;;;;;;;;;19.90;51.60;;;;;;5147561;27;19955;-45
2022/08/16 11:26:05;;;;;;;;;;;20.00;54.50;;;;;;5125638;27;19966;-46
2022/08/16 11:28:31;;;;;;;;;;;20.80;58.30;;;;;;5149714;27;19927;-47
2022/08/16 11:30:58;;;;;;;;;;;21.50;58.50;;;;;;5125168;27;19924;-47
2022/08/16 11:33:24;;;;;;;;;;;21.60;56.40;;;;;;5139170;27;19931;-45
2022/08/16 11:35:50;;;;;;;;;;;20.80;55.20;;;;;;5149285;27;20067;-46
2022/08/16 11:38:18;;;;;;;;;;;20.50;53.90;;;;;;5143887;27;19929;-45
2022/08/16 11:40:49;;;;;;;;;;;20.30;53.40;;;;;;5143838;27;20353;-46
2022/08/16 11:43:19;;;;;;;;;;;20.50;52.20;;;;;;5149436;27;19983;-47
2022/08/16 11:45:45;;;;;;;;;;;20.10;52.10;;;;;;5143795;27;20022;-47
2022/08/16 11:48:12;;;;;;;;;;;20.20;51.70;;;;;;5149232;27;20214;-49
2022/08/16 11:50:38;;;;;;;;;;;19.80;51.90;;;;;;5140515;27;20086;-48
2022/08/16 11:53:04;;;;;;;;;;;19.90;52.60;;;;;;5117391;27;20390;-46
2022/08/16 11:55:30;;;;;;;;;;;20.60;57.60;;;;;;5149063;27;19930;-46
2022/08/16 11:57:56;;;;;;;;;;;21.30;58.40;;;;;;5143322;27;19937;-45
2022/08/16 12:00:22;;;;;;;;;;;21.60;56.20;;;;;;5143552;27;20327;-46
2022/08/16 12:02:48;;;;;;;;;;;20.80;55.00;;;;;;5148985;27;19923;-45
2022/08/16 12:05:14;;;;;;;;;;;20.70;53.70;;;;;;5142796;27;19935;-44
2022/08/16 12:07:40;;;;;;;;;;;20.30;53.60;;;;;;5145847;27;19923;-55
2022/08/16 12:10:07;;;;;;;;;;;20.30;52.70;;;;;;5122940;27;19933;-47
2022/08/16 12:12:33;;;;;;;;;;;20.30;51.90;;;;;;5124263;27;19923;-46
2022/08/16 12:14:59;;;;;;;;;;;20.10;52.10;;;;;;5148545;27;19930;-46
2022/08/16 12:17:25;;;;;;;;;;;20.00;51.80;;;;;;5142942;27;20010;-46
2022/08/16 12:19:51;;;;;;;;;;;20.30;51.10;;;;;;5143137;27;20014;-46
2022/08/16 12:22:16;;;;;;;;;;;20.00;51.40;;;;;;5148417;27;20282;-48
2022/08/16 12:24:42;;;;;;;;;;;20.40;56.10;;;;;;5143313;27;19931;-46
2022/08/16 12:27:08;;;;;;;;;;;21.20;58.10;;;;;;5139778;27;20271;-46
2022/08/16 12:29:34;;;;;;;;;;;21.80;57.50;;;;;;5127665;27;20025;-46
2022/08/16 12:32:00;;;;;;;;;;;21.20;55.40;;;;;;5142728;27;19923;-46
2022/08/16 12:34:26;;;;;;;;;;;20.60;54.40;;;;;;5148431;27;19927;-49
2022/08/16 12:36:51;;;;;;;;;;;20.30;53.70;;;;;;5142809;27;19934;-44
2022/08/16 12:39:19;;;;;;;;;;;20.40;52.60;;;;;;5142735;27;19930;-45
2022/08/16 12:41:45;;;;;;;;;;;20.20;52.10;;;;;;5148177;27;20408;-46
2022/08/16 12:44:12;;;;;;;;;;;20.30;51.50;;;;;;5142605;27;19923;-46
2022/08/16 12:46:37;;;;;;;;;;;20.10;51.50;;;;;;5137532;27;20308;-45
2022/08/16 12:49:05;;;;;;;;;;;19.90;51.20;;;;;;5147665;27;20442;-45
2022/08/16 12:51:32;;;;;;;;;;;20.20;54.60;;;;;;5142711;27;19923;-46
2022/08/16 12:53:58;;;;;;;;;;;20.90;57.90;;;;;;5148032;27;20426;-47
2022/08/16 12:56:28;;;;;;;;;;;21.70;57.30;;;;;;5142541;27;20345;-45
2022/08/16 12:58:54;;;;;;;;;;;21.30;55.10;;;;;;5142412;27;19929;-46
2022/08/16 13:01:21;;;;;;;;;;;20.80;53.90;;;;;;5147855;27;20398;-45
2022/08/16 13:03:46;;;;;;;;;;;20.70;53.00;;;;;;5138945;27;19923;-46
2022/08/16 13:06:12;;;;;;;;;;;20.60;52.10;;;;;;5140119;27;19923;-46
2022/08/16 13:08:38;;;;;;;;;;;20.20;52.10;;;;;;5147907;27;20274;-45
2022/08/16 13:11:04;;;;;;;;;;;20.20;51.40;;;;;;5142300;27;19927;-44
2022/08/16 13:13:30;;;;;;;;;;;20.20;51.10;;;;;;5144232;27;19967;-54
2022/08/16 13:15:57;;;;;;;;;;;19.90;51.50;;;;;;5145965;27;20511;-48
2022/08/16 13:18:23;;;;;;;;;;;19.90;51.20;;;;;;5141694;27;19927;-47
2022/08/16 13:20:49;;;;;;;;;;;20.50;56.40;;;;;;5147810;27;19982;-47
2022/08/16 13:23:15;;;;;;;;;;;21.30;57.20;;;;;;5137025;27;19946;-47
2022/08/16 13:25:42;;;;;;;;;;;21.90;55.80;;;;;;5141572;27;20011;-45
2022/08/16 13:28:08;;;;;;;;;;;21.20;54.50;;;;;;5147721;27;20157;-45
2022/08/16 13:30:39;;;;;;;;;;;20.70;53.40;;;;;;5142192;27;20038;-46
2022/08/16 13:33:05;;;;;;;;;;;20.50;52.80;;;;;;5142360;27;20128;-46
2022/08/16 13:35:33;;;;;;;;;;;20.30;52.20;;;;;;5147729;27;19981;-44
2022/08/16 13:37:58;;;;;;;;;;;20.10;52.10;;;;;;5142318;27;19923;-49
2022/08/16 13:40:24;;;;;;;;;;;20.20;51.30;;;;;;5144153;27;19964;-46
2022/08/16 13:42:53;;;;;;;;;;;20.00;51.60;;;;;;5139740;27;19927;-48
2022/08/16 13:45:18;;;;;;;;;;;20.00;51.40;;;;;;5141967;27;20399;-48
2022/08/16 13:47:44;;;;;;;;;;;20.00;51.00;;;;;;5147528;27;19972;-46
2022/08/16 13:50:10;;;;;;;;;;;19.90;50.70;;;;;;5142210;27;19936;-45
2022/08/16 13:52:36;;;;;;;;;;;20.50;54.70;;;;;;5141819;27;20368;-47
2022/08/16 13:55:02;;;;;;;;;;;21.20;56.90;;;;;;5147445;27;20369;-47
2022/08/16 13:57:28;;;;;;;;;;;21.80;55.90;;;;;;5141881;27;19927;-45
2022/08/16 13:59:54;;;;;;;;;;;21.00;54.50;;;;;;5139724;27;20022;-53
2022/08/16 14:02:19;;;;;;;;;;;20.80;53.20;;;;;;5143979;27;19976;-46
2022/08/16 14:04:45;;;;;;;;;;;20.60;52.20;;;;;;5141944;27;20382;-45
2022/08/16 14:07:12;;;;;;;;;;;20.30;52.20;;;;;;5126571;27;19927;-45
2022/08/16 14:09:38;;;;;;;;;;;20.20;51.70;;;;;;5141949;27;20244;-44
2022/08/16 14:12:05;;;;;;;;;;;20.10;51.40;;;;;;5141760;27;19972;-45